< Cyclone 196501 1965 Season Cyclone 196504 >
Cyclone 196502 (FLORA)
General InformationTrack Information on Google Maps || ResourceGoogle EarthGE AnimationAtom FeedGeoJSON
Detalied Best Track (Time Zone = UTC)
Year Month Day Hour Lat. Long. Pressure (hPa) Wind (kt) Class Image Chart
1964 11 30 23 -10.6 134.5 1002 0 0 -- --
1964 12 1 02 -10.7 134.1 1002 0 0 -- --
1964 12 1 05 -10.9 134.0 1002 0 0 -- --
1964 12 1 08 -11.0 133.8 1002 0 0 -- --
1964 12 1 11 -11.1 133.6 1001 0 0 -- --
1964 12 1 14 -11.2 133.1 1000 0 0 -- --
1964 12 1 17 -11.2 133.1 1000 0 0 -- --
1964 12 1 20 -11.3 132.9 1000 0 0 -- --
1964 12 1 23 -11.4 132.7 1000 0 0 -- --
1964 12 2 02 -11.5 132.5 1000 0 0 -- --
1964 12 2 05 -11.7 132.2 998 0 0 -- --
1964 12 2 08 -11.9 132.1 997 0 0 -- --
1964 12 2 11 -12.0 132.0 995 0 0 -- --
1964 12 2 14 -12.3 131.8 996 0 0 -- --
1964 12 2 17 -12.4 131.6 997 0 0 -- --
1964 12 2 20 -12.7 131.6 998 0 0 -- --
1964 12 2 23 -13.0 131.6 998 0 0 -- --
1964 12 3 02 -13.1 131.8 998 0 0 -- --
1964 12 3 05 -13.4 132.3 998 0 0 -- --
1964 12 3 08 -13.5 132.5 998 0 0 -- --
1964 12 3 11 -13.6 132.7 998 0 0 -- --
1964 12 3 14 -13.7 133.0 998 0 0 -- --
1964 12 3 17 -13.7 133.2 998 0 0 -- --
1964 12 3 20 -13.7 133.8 998 0 0 -- --
1964 12 3 23 -13.7 134.3 998 0 0 -- --
1964 12 4 02 -13.9 134.8 998 0 0 -- --
1964 12 4 05 -14.2 135.0 998 0 0 -- --
1964 12 4 08 -14.5 135.6 996 0 0 -- --
1964 12 4 14 -15.1 136.7 994 0 0 -- --
< Cyclone 196501 1965 Season Cyclone 196504 >

Help